F/V Argentario — FGPE — position and weather

sailwx.info

Track history (hours):
 
Tides and Currents Weather Stations Pressure Air Temp Water Temp Dewpoint Dewpoint Depression Visibility Wind Speed Wind Dir Waves Ship Positions

F/V Argentario

Last reported at 2016-Jun-29 00:32 UTC. Time now 2016-Jun-29 12:52 UTC.
Position N 46°42' W 003°12'.

Length 22 m; draft 3.4 m.

Type: Fishing. MMSI: 228975000.

Date/timePositionNaut miles runAvg speedWind from/ knotsBaromVisibWave heightAir tempDewpointWater temp
2016-Jun-29 00:32N 46°42' W 003°12'7 6.8
2016-Jun-28 23:28N 46°43' W 003°01'27 6.2
2016-Jun-28 19:13N 46°45' W 002°23'0 0.2
2016-Jun-28 17:20N 46°45' W 002°23'4810.0
2016-Jun-28 12:28N 46°41' W 003°34'11 1.8
2016-Jun-28 06:32N 46°38' W 003°48'19 0.9
2016-Jun-27 10:10N 46°28' W 003°25'1 0.2
2016-Jun-27 07:25N 46°27' W 003°25'1 1.5
2016-Jun-27 06:33N 46°27' W 003°23'3 0.1
2016-Jun-26 11:24N 46°28' W 003°27'15 0.3
2016-Jun-24 11:10N 46°32' W 003°05'6 9.3
2016-Jun-24 10:33N 46°35' W 002°58'10 9.3
2016-Jun-24 09:28N 46°39' W 002°44'8 9.1
2016-Jun-24 08:33N 46°42' W 002°33'9 8.7
2016-Jun-24 07:33N 46°45' W 002°21'1 0.9
2016-Jun-24 06:33N 46°44' W 002°21'  
2016-Jun-21 08:32N 46°44' W 002°21'0 0.0
2016-Jun-21 07:31N 46°44' W 002°21'0 0.0
2016-Jun-21 06:33N 46°44' W 002°21'0 0.0
2016-Jun-20 15:30N 46°44' W 002°21'0 0.0
2016-Jun-20 14:29N 46°44' W 002°21'0 0.0
2016-Jun-20 13:33N 46°44' W 002°21'0 0.0
2016-Jun-20 12:33N 46°44' W 002°21'0 0.0
2016-Jun-20 11:30N 46°44' W 002°21'0 0.0
2016-Jun-20 10:34N 46°44' W 002°21'0 0.0
2016-Jun-20 09:31N 46°44' W 002°21'0 0.0
2016-Jun-20 08:33N 46°44' W 002°21'  
Track history (hours):
 
Tides and Currents Weather Stations Pressure Air Temp Water Temp Dewpoint Dewpoint Depression Visibility Wind Speed Wind Dir Waves Ship Positions

F/V Argentario

Last reported at 2016-Jun-29 00:32 UTC. Time now 2016-Jun-29 12:52 UTC.
Position N 46°42' W 003°12'.

Length 22 m; draft 3.4 m.

Type: Fishing. MMSI: 228975000.

Date/timePositionNaut miles runAvg speedWind from/ knotsBaromVisibWave heightAir tempDewpointWater temp
2016-Jun-29 00:32N 46°42' W 003°12'7 6.8
2016-Jun-28 23:28N 46°43' W 003°01'27 6.2
2016-Jun-28 19:13N 46°45' W 002°23'0 0.2
2016-Jun-28 17:20N 46°45' W 002°23'4810.0
2016-Jun-28 12:28N 46°41' W 003°34'11 1.8
2016-Jun-28 06:32N 46°38' W 003°48'19 0.9
2016-Jun-27 10:10N 46°28' W 003°25'1 0.2
2016-Jun-27 07:25N 46°27' W 003°25'1 1.5
2016-Jun-27 06:33N 46°27' W 003°23'3 0.1
2016-Jun-26 11:24N 46°28' W 003°27'15 0.3
2016-Jun-24 11:10N 46°32' W 003°05'6 9.3
2016-Jun-24 10:33N 46°35' W 002°58'10 9.3
2016-Jun-24 09:28N 46°39' W 002°44'8 9.1
2016-Jun-24 08:33N 46°42' W 002°33'9 8.7
2016-Jun-24 07:33N 46°45' W 002°21'1 0.9
2016-Jun-24 06:33N 46°44' W 002°21'  
2016-Jun-21 08:32N 46°44' W 002°21'0 0.0
2016-Jun-21 07:31N 46°44' W 002°21'0 0.0
2016-Jun-21 06:33N 46°44' W 002°21'0 0.0
2016-Jun-20 15:30N 46°44' W 002°21'0 0.0
2016-Jun-20 14:29N 46°44' W 002°21'0 0.0
2016-Jun-20 13:33N 46°44' W 002°21'0 0.0
2016-Jun-20 12:33N 46°44' W 002°21'0 0.0
2016-Jun-20 11:30N 46°44' W 002°21'0 0.0
2016-Jun-20 10:34N 46°44' W 002°21'0 0.0
2016-Jun-20 09:31N 46°44' W 002°21'0 0.0
2016-Jun-20 08:33N 46°44' W 002°21'  

Dump ship's entire track history